Carvalhos, Brazil
Current Conditions -  °F | °C
As of 11:00 AM on Monday 22 Dec 2014 (Local Time) from SBBQ Reporting Station
Broken Clouds Broken Clouds  
Wind Chill: 75°   Ceiling: 1900
Heat Index: 75°   Visibility: 6mi
Dew Point: 66°   Wind: 12mph
Humidity: 73%   Direction: 290°WNW
Pressure: 30.12"   Gusts: NA
Location:  22°S, 44.46°W
Report Text: SBBQ 221300Z 29010KT 9999 BKN019 24/19 Q1020
Loading
Personal Weather Stations






























Interactive Weather Map New forecast layout! Learn more

10-Day Weather Forecast

Advertisements
Track Severe Weather on mobile